EmailTwitter


Surface observations / Europe / LIRF (16242)

Regions: Quebec | Canada | USA | Europe | France | UK | Elsewhere
Station
Display
Info & Location for LIRF (16242) | Help decoding METAR

Weather Conditions observed on 2018/02/22 at 22:20 UTC (LIRF)

Sky conditions: partly cloudy.

Temperature: 9.0 Celsius.

Dewpoint: 7.0 Celsius.

Relative Humidity: 87%

Windchill Factor: 6.

Winds: East at 17 km/h or 9 knots.

Mean Sea level Pressure: 100.10 kilopascals.

Horizontal visibility: 6.21 statute miles or 9.94 kilometers.

Height of the Ceiling: 1067 metres ( 3500 feet ).

Coded METAR:

LIRF 222220Z 10009KT 9999 BKN035 09/07 Q1001 NOSIG=